createdAt,value
2018-07-26T00:00:17.787Z,17.06
2018-07-26T00:01:17.768Z,17.14
2018-07-26T00:02:17.746Z,17.11
2018-07-26T00:03:17.737Z,17.18
2018-07-26T00:04:17.701Z,17.17
2018-07-26T00:05:17.684Z,17.17
2018-07-26T00:06:17.673Z,17.22
2018-07-26T00:07:17.612Z,17.15
2018-07-26T00:08:17.607Z,17.15
2018-07-26T00:09:17.572Z,17.06
2018-07-26T00:10:17.561Z,17.03
2018-07-26T00:11:17.544Z,16.98
2018-07-26T00:12:17.588Z,16.90
2018-07-26T00:13:17.562Z,17.03
2018-07-26T00:14:17.542Z,16.98
2018-07-26T00:15:17.521Z,17.00
2018-07-26T00:16:17.514Z,17.10
2018-07-26T00:17:17.474Z,17.15
2018-07-26T00:18:17.452Z,17.14
2018-07-26T00:19:17.428Z,17.10
2018-07-26T00:20:17.407Z,17.07
2018-07-26T00:21:17.383Z,17.06
2018-07-26T00:22:17.287Z,17.10
2018-07-26T00:23:17.267Z,16.99
2018-07-26T00:24:17.247Z,17.03
2018-07-26T00:25:17.223Z,17.00
2018-07-26T00:26:17.200Z,16.96
2018-07-26T00:27:17.182Z,17.03
2018-07-26T00:28:17.148Z,17.03
2018-07-26T00:29:17.128Z,16.98
2018-07-26T00:30:17.114Z,16.90
2018-07-26T00:31:17.089Z,16.93
2018-07-26T00:32:17.060Z,16.95
2018-07-26T00:33:17.037Z,16.93
2018-07-26T00:34:17.026Z,17.06
2018-07-26T00:35:16.994Z,16.98
2018-07-26T00:36:16.952Z,16.95
2018-07-26T00:37:16.931Z,16.95
2018-07-26T00:38:16.903Z,16.86
2018-07-26T00:39:16.884Z,16.81
2018-07-26T00:40:16.878Z,16.81
2018-07-26T00:41:16.875Z,16.93
2018-07-26T00:42:16.833Z,16.78
2018-07-26T00:43:16.792Z,16.86
2018-07-26T00:44:16.773Z,16.95
2018-07-26T00:45:16.746Z,16.95
2018-07-26T00:46:16.744Z,16.90
2018-07-26T00:47:16.715Z,16.88
2018-07-26T00:48:16.686Z,16.89
2018-07-26T00:49:16.666Z,16.95
2018-07-26T00:50:16.652Z,16.88
2018-07-26T00:51:16.628Z,16.83
2018-07-26T00:52:16.613Z,16.90
2018-07-26T00:53:16.580Z,16.89
2018-07-26T00:54:50.064Z,16.89
2018-07-26T00:55:17.070Z,16.98
2018-07-26T00:56:16.514Z,16.99
2018-07-26T00:57:16.558Z,17.03
2018-07-26T00:58:16.450Z,17.03
2018-07-26T00:59:16.422Z,17.10
2018-07-26T01:00:16.419Z,16.93
2018-07-26T01:01:16.396Z,16.88
2018-07-26T01:02:16.385Z,16.88
2018-07-26T01:03:16.355Z,16.81
2018-07-26T01:04:16.330Z,16.95
2018-07-26T01:05:16.306Z,16.88
2018-07-26T01:06:16.277Z,16.83
2018-07-26T01:07:16.258Z,16.85
2018-07-26T01:08:16.240Z,16.81
2018-07-26T01:09:16.215Z,16.81
2018-07-26T01:10:16.174Z,16.78
2018-07-26T01:11:16.154Z,16.86
2018-07-26T01:12:16.145Z,16.88
2018-07-26T01:13:16.129Z,16.78
2018-07-26T01:14:16.078Z,16.95
2018-07-26T01:15:16.073Z,16.92
2018-07-26T01:16:16.055Z,16.93
2018-07-26T01:17:16.036Z,16.93
2018-07-26T01:18:16.005Z,16.80
2018-07-26T01:19:15.983Z,16.89
2018-07-26T01:20:15.967Z,16.83
2018-07-26T01:21:15.938Z,16.86
2018-07-26T01:22:15.908Z,16.86
2018-07-26T01:23:15.872Z,16.86
2018-07-26T01:24:15.863Z,16.83
2018-07-26T01:25:15.859Z,16.80
2018-07-26T01:26:15.823Z,16.89
2018-07-26T01:27:15.804Z,16.86
2018-07-26T01:28:15.777Z,16.81
2018-07-26T01:29:15.752Z,16.86
2018-07-26T01:30:15.732Z,16.86
2018-07-26T01:31:15.710Z,16.77
2018-07-26T01:32:15.687Z,16.74
2018-07-26T01:33:15.659Z,16.80
2018-07-26T01:34:15.618Z,16.80
2018-07-26T01:35:15.618Z,16.83
2018-07-26T01:36:15.587Z,16.86
2018-07-26T01:37:15.571Z,16.78
2018-07-26T01:38:15.530Z,16.81
2018-07-26T01:39:15.520Z,16.86
2018-07-26T01:40:15.501Z,16.78
2018-07-26T01:41:15.479Z,16.77
2018-07-26T01:42:15.464Z,16.80
2018-07-26T01:43:15.437Z,16.78
2018-07-26T01:44:15.405Z,16.78
2018-07-26T01:45:15.379Z,16.80
2018-07-26T01:46:15.363Z,16.83
2018-07-26T01:47:15.340Z,16.92
2018-07-26T01:48:15.314Z,16.75
2018-07-26T01:49:15.274Z,16.85
2018-07-26T01:50:15.270Z,16.83
2018-07-26T01:51:15.227Z,16.80
2018-07-26T01:52:15.217Z,16.90
2018-07-26T01:53:15.181Z,16.81
2018-07-26T01:54:15.180Z,16.88
2018-07-26T01:55:15.133Z,16.81
2018-07-26T01:56:15.129Z,16.81
2018-07-26T01:57:15.108Z,16.89
2018-07-26T01:58:15.084Z,16.78
2018-07-26T01:59:15.061Z,16.93
2018-07-26T02:00:15.037Z,16.95
2018-07-26T02:01:15.017Z,16.92
2018-07-26T02:02:14.975Z,16.96
2018-07-26T02:03:14.970Z,16.93
2018-07-26T02:04:14.960Z,16.96
2018-07-26T02:05:14.905Z,16.99
2018-07-26T02:06:14.905Z,16.98
2018-07-26T02:07:14.883Z,16.98
2018-07-26T02:08:14.878Z,17.10
2018-07-26T02:09:15.091Z,16.95
2018-07-26T02:10:14.813Z,16.95
2018-07-26T02:11:14.789Z,16.95
2018-07-26T02:12:14.768Z,16.93
2018-07-26T02:13:14.744Z,16.98
2018-07-26T02:14:14.727Z,16.92
2018-07-26T02:15:14.713Z,16.99
2018-07-26T02:16:14.667Z,16.98
2018-07-26T02:17:14.632Z,17.06
2018-07-26T02:18:14.627Z,16.98
2018-07-26T02:19:14.602Z,16.90
2018-07-26T02:20:14.585Z,16.92
2018-07-26T02:21:14.535Z,16.93
2018-07-26T02:22:14.533Z,16.89
2018-07-26T02:23:14.509Z,17.04
2018-07-26T02:24:14.490Z,16.93
2018-07-26T02:25:14.465Z,17.00
2018-07-26T02:26:14.436Z,16.99
2018-07-26T02:27:14.421Z,17.00
2018-07-26T02:28:14.394Z,17.04
2018-07-26T02:29:14.387Z,17.00
2018-07-26T02:30:14.359Z,16.98
2018-07-26T02:31:14.326Z,17.06
2018-07-26T02:32:14.334Z,16.99
2018-07-26T02:33:14.285Z,16.95
2018-07-26T02:34:14.261Z,16.90
2018-07-26T02:35:14.774Z,16.95
2018-07-26T02:36:14.224Z,16.81
2018-07-26T02:37:14.177Z,16.95
2018-07-26T02:38:14.695Z,16.95
2018-07-26T02:39:14.148Z,16.78
2018-07-26T02:40:14.118Z,16.81
2018-07-26T02:41:14.125Z,16.98
2018-07-26T02:42:14.083Z,16.90
2018-07-26T02:43:14.074Z,17.04
2018-07-26T02:44:14.035Z,16.99
2018-07-26T02:45:14.008Z,17.15
2018-07-26T02:46:13.987Z,17.07
2018-07-26T02:47:13.963Z,16.96
2018-07-26T02:48:13.934Z,16.99
2018-07-26T02:49:13.912Z,17.04
2018-07-26T02:50:13.892Z,17.04
2018-07-26T02:51:13.889Z,16.99
2018-07-26T02:52:14.398Z,17.08
2018-07-26T02:53:13.803Z,17.20
2018-07-26T02:54:13.804Z,17.14
2018-07-26T02:55:13.807Z,17.13
2018-07-26T02:56:46.984Z,17.10
2018-07-26T02:57:13.741Z,16.99
2018-07-26T02:58:13.713Z,16.99
2018-07-26T02:59:13.697Z,16.96
2018-07-26T03:00:13.644Z,17.03
2018-07-26T03:01:13.655Z,16.98
2018-07-26T03:02:13.647Z,17.00
2018-07-26T03:03:13.598Z,16.88
2018-07-26T03:04:13.586Z,16.96
2018-07-26T03:05:13.555Z,17.03
2018-07-26T03:06:13.529Z,17.03
2018-07-26T03:07:13.576Z,17.03
2018-07-26T03:08:14.214Z,17.06
2018-07-26T03:09:13.870Z,17.13
2018-07-26T03:10:13.948Z,17.13
2018-07-26T03:11:13.920Z,17.11
2018-07-26T03:12:14.316Z,16.99
2018-07-26T03:13:13.350Z,17.03
2018-07-26T03:14:13.343Z,17.03
2018-07-26T03:15:13.325Z,16.99
2018-07-26T03:16:13.301Z,16.99
2018-07-26T03:17:13.283Z,17.04
2018-07-26T03:18:13.252Z,16.98
2018-07-26T03:19:13.236Z,16.99
2018-07-26T03:20:13.219Z,17.04
2018-07-26T03:21:13.189Z,17.03
2018-07-26T03:22:13.164Z,16.93
2018-07-26T03:23:13.145Z,16.98
2018-07-26T03:24:13.121Z,16.96
2018-07-26T03:25:13.097Z,16.96
2018-07-26T03:26:13.165Z,16.98
2018-07-26T03:27:13.056Z,17.00
2018-07-26T03:28:13.754Z,17.03
2018-07-26T03:29:12.998Z,17.00
2018-07-26T03:30:12.983Z,17.07
2018-07-26T03:31:12.963Z,17.03
2018-07-26T03:32:12.941Z,16.98
2018-07-26T03:33:12.912Z,16.96
2018-07-26T03:34:12.888Z,16.90
2018-07-26T03:35:12.865Z,16.81
2018-07-26T03:36:12.849Z,16.86
2018-07-26T03:37:12.820Z,16.78
2018-07-26T03:38:12.786Z,16.86
2018-07-26T03:39:12.762Z,16.83
2018-07-26T03:40:12.759Z,16.83
2018-07-26T03:41:12.705Z,16.88
2018-07-26T03:42:13.440Z,16.78
2018-07-26T03:43:12.700Z,16.80
2018-07-26T03:44:12.661Z,16.78
2018-07-26T03:45:12.646Z,16.83
2018-07-26T03:46:12.612Z,16.95
2018-07-26T03:47:12.594Z,16.90
2018-07-26T03:48:12.566Z,16.89
2018-07-26T03:49:12.552Z,16.90
2018-07-26T03:50:12.526Z,16.89
2018-07-26T03:51:12.547Z,16.93
2018-07-26T03:52:12.488Z,16.92
2018-07-26T03:53:12.455Z,16.89
2018-07-26T03:54:12.432Z,16.85
2018-07-26T03:55:12.674Z,16.85
2018-07-26T03:56:12.388Z,16.74
2018-07-26T03:57:12.363Z,16.86
2018-07-26T03:58:12.340Z,16.85
2018-07-26T03:59:12.298Z,16.86
2018-07-26T04:00:12.310Z,16.81
2018-07-26T04:01:12.248Z,16.85
2018-07-26T04:02:12.253Z,16.88
2018-07-26T04:03:12.265Z,16.85
2018-07-26T04:04:12.194Z,16.86
2018-07-26T04:05:12.157Z,16.83
2018-07-26T04:06:12.157Z,16.83
2018-07-26T04:07:12.127Z,16.81
2018-07-26T04:08:12.100Z,16.81
2018-07-26T04:09:12.082Z,16.81
2018-07-26T04:10:12.059Z,16.86
2018-07-26T04:11:12.034Z,16.78
2018-07-26T04:12:12.016Z,16.81
2018-07-26T04:13:11.989Z,16.75
2018-07-26T04:14:12.031Z,16.78
2018-07-26T04:15:11.946Z,16.77
2018-07-26T04:16:11.921Z,16.81
2018-07-26T04:17:11.900Z,16.83
2018-07-26T04:18:11.876Z,16.83
2018-07-26T04:19:11.860Z,16.74
2018-07-26T04:20:11.918Z,16.83
2018-07-26T04:21:11.809Z,16.75
2018-07-26T04:22:11.763Z,16.78
2018-07-26T04:23:11.767Z,16.78
2018-07-26T04:24:11.736Z,16.75
2018-07-26T04:25:11.710Z,16.77
2018-07-26T04:26:11.751Z,16.74
2018-07-26T04:27:11.670Z,16.75
2018-07-26T04:28:11.648Z,16.75
2018-07-26T04:29:11.619Z,16.73
2018-07-26T04:30:11.594Z,16.65
2018-07-26T04:31:11.571Z,16.63
2018-07-26T04:32:44.758Z,16.67
2018-07-26T04:33:11.536Z,16.74
2018-07-26T04:34:11.501Z,16.73
2018-07-26T04:35:11.492Z,16.70
2018-07-26T04:36:11.463Z,16.78
2018-07-26T04:37:11.432Z,16.80
2018-07-26T04:38:11.788Z,16.77
2018-07-26T04:39:11.396Z,16.80
2018-07-26T04:40:11.342Z,16.75
2018-07-26T04:41:11.343Z,16.74
2018-07-26T04:42:11.309Z,16.81
2018-07-26T04:43:11.316Z,16.74
2018-07-26T04:44:11.287Z,16.68
2018-07-26T04:45:11.252Z,16.68
2018-07-26T04:46:11.225Z,16.65
2018-07-26T04:47:11.203Z,16.74
2018-07-26T04:48:11.184Z,16.63
2018-07-26T04:49:11.277Z,16.65
2018-07-26T04:50:11.131Z,16.67
2018-07-26T04:51:11.115Z,16.62
2018-07-26T04:52:11.096Z,16.58
2018-07-26T04:53:11.067Z,16.62
2018-07-26T04:54:11.054Z,16.59
2018-07-26T04:55:11.023Z,16.53
2018-07-26T04:56:11.008Z,16.55
2018-07-26T04:57:11.909Z,16.48
2018-07-26T04:58:11.458Z,16.55
2018-07-26T04:59:10.928Z,16.56
2018-07-26T05:00:10.911Z,16.56
2018-07-26T05:01:10.880Z,16.52
2018-07-26T05:02:10.859Z,16.50
2018-07-26T05:03:10.821Z,16.55
2018-07-26T05:04:10.805Z,16.59
2018-07-26T05:05:10.791Z,16.62
2018-07-26T05:06:10.767Z,16.63
2018-07-26T05:07:10.721Z,16.65
2018-07-26T05:08:10.763Z,16.73
2018-07-26T05:09:11.227Z,16.62
2018-07-26T05:10:10.681Z,16.63
2018-07-26T05:11:10.647Z,16.63
2018-07-26T05:12:10.634Z,16.70
2018-07-26T05:13:10.610Z,16.67
2018-07-26T05:14:10.581Z,16.65
2018-07-26T05:15:10.557Z,16.68
2018-07-26T05:16:10.538Z,16.63
2018-07-26T05:17:10.506Z,16.60
2018-07-26T05:18:10.488Z,16.55
2018-07-26T05:19:10.563Z,16.60
2018-07-26T05:20:10.445Z,16.62
2018-07-26T05:21:10.417Z,16.62
2018-07-26T05:22:10.404Z,16.63
2018-07-26T05:23:10.443Z,16.73
2018-07-26T05:24:10.344Z,16.68
2018-07-26T05:25:10.307Z,16.62
2018-07-26T05:26:10.307Z,16.59
2018-07-26T05:27:10.410Z,16.63
2018-07-26T05:28:10.241Z,16.70
2018-07-26T05:29:10.221Z,16.70
2018-07-26T05:30:10.203Z,16.65
2018-07-26T05:31:10.191Z,16.62
2018-07-26T05:32:10.147Z,16.56
2018-07-26T05:33:10.138Z,16.53
2018-07-26T05:34:10.123Z,16.59
2018-07-26T05:35:10.102Z,16.45
2018-07-26T05:36:10.066Z,16.48
2018-07-26T05:37:10.047Z,16.56
2018-07-26T05:38:10.030Z,16.48
2018-07-26T05:39:10.003Z,16.50
2018-07-26T05:40:09.966Z,16.58
2018-07-26T05:41:09.959Z,16.50
2018-07-26T05:42:09.912Z,16.55
2018-07-26T05:43:09.926Z,16.58
2018-07-26T05:44:09.881Z,16.49
2018-07-26T05:45:09.850Z,16.53
2018-07-26T05:46:09.822Z,16.63
2018-07-26T05:47:09.815Z,16.53
2018-07-26T05:48:09.793Z,16.56
2018-07-26T05:49:09.745Z,16.56
2018-07-26T05:50:09.748Z,16.50
2018-07-26T05:51:09.718Z,16.58
2018-07-26T05:52:09.749Z,16.55
2018-07-26T05:53:09.674Z,16.65
2018-07-26T05:54:09.648Z,16.59
2018-07-26T05:55:09.631Z,16.60
2018-07-26T05:56:09.602Z,16.58
2018-07-26T05:57:09.580Z,16.56
2018-07-26T05:58:09.555Z,16.56
2018-07-26T05:59:09.538Z,16.56
2018-07-26T06:00:09.527Z,16.60
2018-07-26T06:01:09.485Z,16.60
2018-07-26T06:02:09.466Z,16.62
2018-07-26T06:03:09.435Z,16.62
2018-07-26T06:04:09.412Z,16.55
2018-07-26T06:05:09.392Z,16.62
2018-07-26T06:06:09.374Z,16.59
2018-07-26T06:07:10.696Z,16.65
2018-07-26T06:08:09.319Z,16.65
2018-07-26T06:09:09.280Z,16.63
2018-07-26T06:10:09.281Z,16.59
2018-07-26T06:11:09.285Z,16.55
2018-07-26T06:12:09.210Z,16.49
2018-07-26T06:13:09.208Z,16.48
2018-07-26T06:14:09.188Z,16.56
2018-07-26T06:15:09.163Z,16.52
2018-07-26T06:16:09.128Z,16.53
2018-07-26T06:17:09.166Z,16.55
2018-07-26T06:18:09.098Z,16.45
2018-07-26T06:19:09.069Z,16.50
2018-07-26T06:20:09.042Z,16.44
2018-07-26T06:21:09.012Z,16.42
2018-07-26T06:22:08.994Z,16.48
2018-07-26T06:23:08.975Z,16.42
2018-07-26T06:24:08.926Z,16.38
2018-07-26T06:25:08.919Z,16.42
2018-07-26T06:26:08.895Z,16.44
2018-07-26T06:27:08.873Z,16.42
2018-07-26T06:28:08.838Z,16.44
2018-07-26T06:29:08.816Z,16.41
2018-07-26T06:30:08.801Z,16.41
2018-07-26T06:31:08.782Z,16.48
2018-07-26T06:32:08.759Z,16.34
2018-07-26T06:33:08.833Z,16.37
2018-07-26T06:34:08.700Z,16.34
2018-07-26T06:35:08.690Z,16.35
2018-07-26T06:36:08.661Z,16.37
2018-07-26T06:37:08.636Z,16.42
2018-07-26T06:38:08.620Z,16.31
2018-07-26T06:39:08.600Z,16.33
2018-07-26T06:40:08.572Z,16.41
2018-07-26T06:41:08.543Z,16.35
2018-07-26T06:42:08.524Z,16.30
2018-07-26T06:43:08.493Z,16.26
2018-07-26T06:44:08.472Z,16.22
2018-07-26T06:45:08.455Z,16.23
2018-07-26T06:46:08.429Z,16.27
2018-07-26T06:47:08.445Z,16.27
2018-07-26T06:48:08.385Z,16.23
2018-07-26T06:49:08.355Z,16.23
2018-07-26T06:50:08.332Z,16.22
2018-07-26T06:51:08.313Z,16.22
2018-07-26T06:52:08.283Z,16.16
2018-07-26T06:53:08.293Z,16.18
2018-07-26T06:54:08.214Z,16.15
2018-07-26T06:55:08.215Z,16.18
2018-07-26T06:56:08.189Z,16.20
2018-07-26T06:57:08.168Z,16.23
2018-07-26T06:58:08.138Z,16.22
2018-07-26T06:59:08.115Z,16.22
2018-07-26T07:00:08.176Z,16.16
2018-07-26T07:01:08.159Z,16.33
2018-07-26T07:02:08.027Z,16.20
2018-07-26T07:03:08.025Z,16.16
2018-07-26T07:04:07.982Z,16.26
2018-07-26T07:05:07.973Z,16.26
2018-07-26T07:06:07.950Z,16.23
2018-07-26T07:07:07.931Z,16.30
2018-07-26T07:08:07.898Z,16.26
2018-07-26T07:09:07.882Z,16.30
2018-07-26T07:10:07.877Z,16.27
2018-07-26T07:11:07.833Z,16.33
2018-07-26T07:12:07.812Z,16.37
2018-07-26T07:13:07.787Z,16.26
2018-07-26T07:14:07.761Z,16.38
2018-07-26T07:15:07.737Z,16.37
2018-07-26T07:16:07.710Z,16.33
2018-07-26T07:17:07.701Z,16.35
2018-07-26T07:18:07.667Z,16.37
2018-07-26T07:19:07.648Z,16.34
2018-07-26T07:20:07.620Z,16.31
2018-07-26T07:21:07.585Z,16.37
2018-07-26T07:22:07.578Z,16.30
2018-07-26T07:23:07.548Z,16.31
2018-07-26T07:24:07.531Z,16.22
2018-07-26T07:25:07.507Z,16.23
2018-07-26T07:26:07.572Z,16.20
2018-07-26T07:27:07.458Z,16.25
2018-07-26T07:28:07.436Z,16.20
2018-07-26T07:29:07.418Z,16.15
2018-07-26T07:30:07.368Z,16.15
2018-07-26T07:31:07.360Z,16.23
2018-07-26T07:32:07.322Z,16.15
2018-07-26T07:33:07.394Z,16.26
2018-07-26T07:34:07.290Z,16.14
2018-07-26T07:35:07.268Z,16.22
2018-07-26T07:36:07.239Z,16.16
2018-07-26T07:37:07.220Z,16.15
2018-07-26T07:38:07.200Z,16.15
2018-07-26T07:39:07.172Z,16.12
2018-07-26T07:40:07.153Z,16.15
2018-07-26T07:41:07.132Z,16.14
2018-07-26T07:42:07.084Z,16.11
2018-07-26T07:43:07.058Z,16.20
2018-07-26T07:44:07.051Z,16.12
2018-07-26T07:45:07.009Z,16.12
2018-07-26T07:46:07.014Z,16.04
2018-07-26T07:47:07.019Z,16.07
2018-07-26T07:48:06.958Z,16.04
2018-07-26T07:49:06.932Z,15.97
2018-07-26T07:50:06.922Z,15.93
2018-07-26T07:51:06.887Z,15.94
2018-07-26T07:52:06.862Z,15.96
2018-07-26T07:53:06.842Z,15.92
2018-07-26T07:54:06.812Z,15.89
2018-07-26T07:55:06.797Z,15.89
2018-07-26T07:56:06.769Z,15.86
2018-07-26T07:57:06.742Z,15.81
2018-07-26T07:58:06.709Z,15.82
2018-07-26T07:59:06.700Z,15.76
2018-07-26T08:00:06.674Z,15.75
2018-07-26T08:01:06.648Z,15.75
2018-07-26T08:02:06.606Z,15.72
2018-07-26T08:03:06.800Z,15.70
2018-07-26T08:04:06.608Z,15.67
2018-07-26T08:05:07.156Z,15.68
2018-07-26T08:06:07.033Z,15.72
2018-07-26T08:07:06.507Z,15.70
2018-07-26T08:08:06.477Z,15.70
2018-07-26T08:09:06.460Z,15.68
2018-07-26T08:10:06.439Z,15.70
2018-07-26T08:11:06.400Z,15.64
2018-07-26T08:12:06.383Z,15.63
2018-07-26T08:13:06.339Z,15.66
2018-07-26T08:14:06.323Z,15.68
2018-07-26T08:15:06.317Z,15.67
2018-07-26T08:16:06.283Z,15.64
2018-07-26T08:17:06.258Z,15.60
2018-07-26T08:18:06.238Z,15.59
2018-07-26T08:19:06.214Z,15.61
2018-07-26T08:20:06.188Z,15.57
2018-07-26T08:21:06.172Z,15.63
2018-07-26T08:22:06.126Z,15.59
2018-07-26T08:23:06.817Z,15.61
2018-07-26T08:24:06.072Z,15.63
2018-07-26T08:25:06.781Z,15.59
2018-07-26T08:26:06.026Z,15.63
2018-07-26T08:27:05.999Z,15.60
2018-07-26T08:28:05.994Z,15.52
2018-07-26T08:29:05.975Z,15.56
2018-07-26T08:30:05.933Z,15.49
2018-07-26T08:31:05.926Z,15.52
2018-07-26T08:32:05.900Z,15.56
2018-07-26T08:33:05.870Z,15.60
2018-07-26T08:34:05.853Z,15.52
2018-07-26T08:35:05.834Z,15.51
2018-07-26T08:36:05.799Z,15.51
2018-07-26T08:37:05.772Z,15.39
2018-07-26T08:38:05.753Z,15.48
2018-07-26T08:39:05.727Z,15.41
2018-07-26T08:40:05.699Z,15.46
2018-07-26T08:41:05.708Z,15.43
2018-07-26T08:42:05.635Z,15.42
2018-07-26T08:43:05.644Z,15.43
2018-07-26T08:44:05.603Z,15.35
2018-07-26T08:45:05.592Z,15.36
2018-07-26T08:46:05.558Z,15.42
2018-07-26T08:47:05.538Z,15.42
2018-07-26T08:48:05.561Z,15.35
2018-07-26T08:49:05.492Z,15.28
2018-07-26T08:50:05.475Z,15.27
2018-07-26T08:51:05.679Z,15.27
2018-07-26T08:52:05.425Z,15.30
2018-07-26T08:53:05.390Z,15.31
2018-07-26T08:54:05.953Z,15.28
2018-07-26T08:55:05.880Z,15.38
2018-07-26T08:56:05.322Z,15.30
2018-07-26T08:57:05.304Z,15.33
2018-07-26T08:58:05.271Z,15.41
2018-07-26T08:59:05.242Z,15.31
2018-07-26T09:00:05.221Z,15.28
2018-07-26T09:01:05.232Z,15.31
2018-07-26T09:02:05.179Z,15.28
2018-07-26T09:03:05.127Z,15.31
2018-07-26T09:04:05.130Z,15.28
2018-07-26T09:05:05.101Z,15.33
2018-07-26T09:06:05.082Z,15.31
2018-07-26T09:07:05.053Z,15.38
2018-07-26T09:08:05.033Z,15.30
2018-07-26T09:09:04.981Z,15.35
2018-07-26T09:10:04.958Z,15.35
2018-07-26T09:11:04.955Z,15.30
2018-07-26T09:12:05.118Z,15.31
2018-07-26T09:13:04.895Z,15.33
2018-07-26T09:14:04.894Z,15.30
2018-07-26T09:15:04.860Z,15.23
2018-07-26T09:16:04.838Z,15.23
2018-07-26T09:17:04.810Z,15.21
2018-07-26T09:18:04.796Z,15.23
2018-07-26T09:19:04.742Z,15.21
2018-07-26T09:20:04.736Z,15.24
2018-07-26T09:21:04.722Z,15.24
2018-07-26T09:22:04.685Z,15.21
2018-07-26T09:23:04.667Z,15.21
2018-07-26T09:24:04.643Z,15.33
2018-07-26T09:25:04.618Z,15.24
2018-07-26T09:26:04.579Z,15.24
2018-07-26T09:27:04.570Z,15.27
2018-07-26T09:28:04.545Z,15.35
2018-07-26T09:29:04.495Z,15.27
2018-07-26T09:30:04.474Z,15.26
2018-07-26T09:31:04.455Z,15.28
2018-07-26T09:32:04.450Z,15.31
2018-07-26T09:33:04.456Z,15.30
2018-07-26T09:34:04.380Z,15.35
2018-07-26T09:35:04.354Z,15.27
2018-07-26T09:36:04.331Z,15.28
2018-07-26T09:37:04.307Z,15.33
2018-07-26T09:38:04.284Z,15.28
2018-07-26T09:39:04.277Z,15.35
2018-07-26T09:40:04.251Z,15.39
2018-07-26T09:41:04.276Z,15.35
2018-07-26T09:42:04.200Z,15.36
2018-07-26T09:43:04.176Z,15.36
2018-07-26T09:44:04.155Z,15.39
2018-07-26T09:45:04.112Z,15.43
2018-07-26T09:46:04.106Z,15.51
2018-07-26T09:47:04.080Z,15.46
2018-07-26T09:48:04.034Z,15.33
2018-07-26T09:49:04.037Z,15.46
2018-07-26T09:50:04.007Z,15.46
2018-07-26T09:51:03.986Z,15.43
2018-07-26T09:52:03.958Z,15.46
2018-07-26T09:53:03.912Z,15.43
2018-07-26T09:54:03.906Z,15.43
2018-07-26T09:55:03.940Z,15.41
2018-07-26T09:56:03.976Z,15.42
2018-07-26T09:57:03.837Z,15.43
2018-07-26T09:58:03.817Z,15.42
2018-07-26T09:59:03.791Z,15.48
2018-07-26T10:00:03.765Z,15.43
2018-07-26T10:01:03.741Z,15.48
2018-07-26T10:02:03.714Z,15.42
2018-07-26T10:03:03.961Z,15.52
2018-07-26T10:04:03.673Z,15.51
2018-07-26T10:05:03.640Z,15.48
2018-07-26T10:06:03.623Z,15.54
2018-07-26T10:07:03.602Z,15.63
2018-07-26T10:08:03.565Z,15.51
2018-07-26T10:09:03.540Z,15.60
2018-07-26T10:10:03.524Z,15.61
2018-07-26T10:11:03.476Z,15.63
2018-07-26T10:12:03.472Z,15.70
2018-07-26T10:13:03.460Z,15.75
2018-07-26T10:14:03.451Z,15.67
2018-07-26T10:15:03.429Z,15.75
2018-07-26T10:16:03.373Z,15.72
2018-07-26T10:17:03.363Z,15.75
2018-07-26T10:18:03.311Z,15.82
2018-07-26T10:19:03.306Z,15.92
2018-07-26T10:20:03.259Z,16.00
2018-07-26T10:21:03.259Z,16.00
2018-07-26T10:22:03.234Z,15.97
2018-07-26T10:23:03.204Z,16.14
2018-07-26T10:24:03.186Z,16.04
2018-07-26T10:25:03.160Z,16.22
2018-07-26T10:26:03.295Z,16.40
2018-07-26T10:27:03.114Z,16.40
2018-07-26T10:28:03.091Z,16.45
2018-07-26T10:29:03.069Z,16.49
2018-07-26T10:30:03.055Z,16.48
2018-07-26T10:31:03.019Z,16.52
2018-07-26T10:32:03.001Z,16.50
2018-07-26T10:33:02.987Z,16.77
2018-07-26T10:34:02.956Z,16.96
2018-07-26T10:35:02.933Z,17.04
2018-07-26T10:36:02.907Z,17.04
2018-07-26T10:37:02.883Z,17.17
2018-07-26T10:38:02.841Z,17.22
2018-07-26T10:39:02.821Z,17.44
2018-07-26T10:40:02.821Z,17.70
2018-07-26T10:41:02.777Z,17.85
2018-07-26T10:42:02.769Z,17.79
2018-07-26T10:43:02.751Z,17.88
2018-07-26T10:44:02.727Z,17.85
2018-07-26T10:45:02.687Z,18.02
2018-07-26T10:46:02.688Z,17.91
2018-07-26T10:47:02.662Z,18.04
2018-07-26T10:48:02.638Z,18.09
2018-07-26T10:49:02.622Z,18.10
2018-07-26T10:50:02.637Z,18.33
2018-07-26T10:51:02.717Z,18.42
2018-07-26T10:52:02.545Z,18.29
2018-07-26T10:53:02.528Z,18.37
2018-07-26T10:54:02.513Z,18.40
2018-07-26T10:55:02.619Z,18.43
2018-07-26T10:56:02.466Z,18.52
2018-07-26T10:57:02.446Z,18.58
2018-07-26T10:58:02.400Z,18.52
2018-07-26T10:59:02.406Z,18.64
2018-07-26T11:00:02.378Z,18.72
2018-07-26T11:01:02.357Z,18.91
2018-07-26T11:02:02.322Z,18.77
2018-07-26T11:03:02.515Z,18.70
2018-07-26T11:04:02.294Z,18.55
2018-07-26T11:05:02.271Z,18.40
2018-07-26T11:06:02.234Z,18.39
2018-07-26T11:07:02.226Z,18.54
2018-07-26T11:08:02.220Z,18.57
2018-07-26T11:09:02.170Z,18.50
2018-07-26T11:10:02.167Z,18.49
2018-07-26T11:11:02.144Z,18.47
2018-07-26T11:12:02.490Z,18.36
2018-07-26T11:13:02.104Z,18.52
2018-07-26T11:14:02.075Z,18.39
2018-07-26T11:15:02.153Z,18.37
2018-07-26T11:16:02.243Z,18.54
2018-07-26T11:17:02.560Z,18.72
2018-07-26T11:18:02.309Z,18.84
2018-07-26T11:19:02.018Z,18.87
2018-07-26T11:20:02.480Z,18.86
2018-07-26T11:21:02.475Z,18.68
2018-07-26T11:22:02.136Z,18.57
2018-07-26T11:23:02.833Z,18.70
2018-07-26T11:24:02.076Z,18.84
2018-07-26T11:25:01.869Z,18.92
2018-07-26T11:26:01.816Z,18.65
2018-07-26T11:27:01.816Z,18.67
2018-07-26T11:28:01.788Z,18.70
2018-07-26T11:29:01.774Z,18.84
2018-07-26T11:30:01.796Z,18.90
2018-07-26T11:31:01.736Z,18.99
2018-07-26T11:32:01.682Z,19.06
2018-07-26T11:33:01.685Z,18.86
2018-07-26T11:34:01.646Z,18.86
2018-07-26T11:35:01.644Z,18.83
2018-07-26T11:36:01.669Z,18.59
2018-07-26T11:37:01.603Z,18.74
2018-07-26T11:38:01.705Z,19.11
2018-07-26T11:39:01.563Z,19.23
2018-07-26T11:40:01.545Z,19.28
2018-07-26T11:41:01.530Z,19.11
2018-07-26T11:42:01.506Z,19.13
2018-07-26T11:43:01.484Z,18.95
2018-07-26T11:44:01.445Z,18.92
2018-07-26T11:45:01.441Z,18.86
2018-07-26T11:46:01.433Z,19.08
2018-07-26T11:47:01.406Z,19.13
2018-07-26T11:48:01.365Z,19.17
2018-07-26T11:49:01.366Z,18.99
2018-07-26T11:50:01.359Z,19.05
2018-07-26T11:51:01.328Z,19.21
2018-07-26T11:52:01.299Z,19.15
2018-07-26T11:53:01.278Z,19.18
2018-07-26T11:54:01.262Z,19.13
2018-07-26T11:55:01.252Z,18.97
2018-07-26T11:56:01.205Z,18.92
2018-07-26T11:57:01.212Z,19.29
2018-07-26T11:58:01.165Z,19.01
2018-07-26T11:59:01.159Z,18.98
2018-07-26T12:00:01.176Z,19.17
2018-07-26T12:01:01.121Z,19.17
2018-07-26T12:02:01.110Z,19.36
2018-07-26T12:03:01.087Z,19.65
2018-07-26T12:04:01.064Z,19.90
2018-07-26T12:05:01.025Z,20.21
2018-07-26T12:06:01.008Z,20.39
2018-07-26T12:07:00.988Z,20.15
2018-07-26T12:08:00.972Z,19.88
2018-07-26T12:09:00.967Z,20.00
2018-07-26T12:10:00.944Z,20.10
2018-07-26T12:11:00.936Z,20.42
2018-07-26T12:12:00.911Z,20.80
2018-07-26T12:13:00.889Z,20.64
2018-07-26T12:14:00.875Z,20.28
2018-07-26T12:15:00.870Z,20.33
2018-07-26T12:16:00.835Z,20.39
2018-07-26T12:17:00.821Z,20.34
2018-07-26T12:18:00.798Z,20.54
2018-07-26T12:19:00.784Z,20.53
2018-07-26T12:20:00.762Z,20.53
2018-07-26T12:21:00.741Z,20.47
2018-07-26T12:22:00.724Z,20.38
2018-07-26T12:23:00.921Z,20.41
2018-07-26T12:24:00.685Z,20.34
2018-07-26T12:25:00.673Z,20.28
2018-07-26T12:26:00.657Z,20.54
2018-07-26T12:27:00.677Z,20.80
2018-07-26T12:28:00.621Z,20.65
2018-07-26T12:29:00.945Z,20.91
2018-07-26T12:30:00.577Z,20.81
2018-07-26T12:31:00.561Z,21.08
2018-07-26T12:32:00.551Z,21.27
2018-07-26T12:33:00.530Z,21.08
2018-07-26T12:34:00.514Z,20.96
2018-07-26T12:35:01.053Z,20.53
2018-07-26T12:36:00.478Z,20.23
2018-07-26T12:37:00.455Z,20.50
2018-07-26T12:38:00.443Z,20.84
2018-07-26T12:39:00.432Z,21.01
2018-07-26T12:40:00.409Z,20.84
2018-07-26T12:41:00.373Z,20.69
2018-07-26T12:42:00.368Z,20.24
2018-07-26T12:43:00.789Z,20.58
2018-07-26T12:44:00.865Z,20.74
2018-07-26T12:45:00.866Z,20.77
2018-07-26T12:46:00.853Z,20.84
2018-07-26T12:47:00.280Z,20.90
2018-07-26T12:48:00.265Z,21.14
2018-07-26T12:49:00.773Z,21.29
2018-07-26T12:50:00.233Z,21.27
2018-07-26T12:51:00.213Z,21.11
2018-07-26T12:53:00.179Z,20.98